Time;durP1;ratioP1;P1;durP2;ratioP2;P2;SDS_P1;SDS_P2;PMS_P1;PMS_P2;Temp;Humidity;BMP_temperature;BMP_pressure;BME280_temperature;BME280_humidity;BME280_pressure;Samples;Min_cycle;Max_cycle;Signal;HPM_P1;HPM_P2
2023/08/01 00:00:48;;;;;;;1999.90;999.90;;;17.00;99.90;;;;;;5077402;28;20127;-71
2023/08/01 00:03:14;;;;;;;1999.90;999.90;;;17.00;99.90;;;;;;5059527;28;20048;-70
2023/08/01 00:05:44;;;;;;;1999.90;999.90;;;17.00;99.90;;;;;;5077360;28;20051;-70
2023/08/01 00:08:12;;;;;;;1999.90;999.90;;;17.00;99.90;;;;;;5078123;28;20045;-71
2023/08/01 00:10:38;;;;;;;1999.90;999.90;;;17.00;99.90;;;;;;5077185;28;20044;-71
2023/08/01 00:13:04;;;;;;;1999.90;999.90;;;16.90;99.90;;;;;;5077042;28;20059;-71
2023/08/01 00:15:30;;;;;;;1999.90;999.90;;;16.90;99.90;;;;;;5042528;28;20403;-71
2023/08/01 00:17:56;;;;;;;1999.90;999.90;;;16.90;99.90;;;;;;5059779;28;20044;-71
2023/08/01 00:20:22;;;;;;;1999.90;999.90;;;16.90;99.90;;;;;;5077859;28;20197;-70
2023/08/01 00:22:47;;;;;;;1999.90;999.90;;;16.90;99.90;;;;;;5059653;28;20469;-71
2023/08/01 00:25:13;;;;;;;1999.90;999.90;;;16.90;99.90;;;;;;5076920;28;20106;-71
2023/08/01 00:27:39;;;;;;;1999.90;999.90;;;16.90;99.90;;;;;;5077439;28;20051;-71
2023/08/01 00:30:06;;;;;;;1999.90;999.90;;;16.90;99.90;;;;;;5076849;28;20514;-70
2023/08/01 00:32:31;;;;;;;1999.90;999.90;;;16.90;99.90;;;;;;5076669;28;20051;-71
2023/08/01 00:34:57;;;;;;;1999.90;999.90;;;16.90;99.90;;;;;;5076470;28;20044;-71
2023/08/01 00:37:23;;;;;;;1999.90;999.90;;;16.80;99.90;;;;;;5076702;28;20044;-70
2023/08/01 00:39:48;;;;;;;1999.90;999.90;;;16.80;99.90;;;;;;5076681;28;20041;-71
2023/08/01 00:42:15;;;;;;;1999.90;999.90;;;16.80;99.90;;;;;;5058936;28;20123;-71
2023/08/01 00:44:40;;;;;;;1999.90;999.90;;;16.80;99.90;;;;;;5076251;28;20484;-71
2023/08/01 00:47:07;;;;;;;1999.90;999.90;;;16.80;99.90;;;;;;5076630;28;20078;-70
2023/08/01 00:49:32;;;;;;;1999.90;999.90;;;16.80;99.90;;;;;;5076458;28;20479;-70
2023/08/01 00:51:58;;;;;;;1999.90;999.90;;;16.80;99.90;;;;;;5076367;28;20041;-70
2023/08/01 00:54:25;;;;;;;1999.90;999.90;;;16.80;99.90;;;;;;5076418;28;20453;-70
2023/08/01 00:56:51;;;;;;;1999.90;999.90;;;16.70;99.90;;;;;;5076351;28;20048;-73
2023/08/01 00:59:17;;;;;;;1999.90;999.90;;;16.80;99.90;;;;;;5058554;28;20036;-71
2023/08/01 01:01:42;;;;;;;1999.90;999.90;;;16.80;99.90;;;;;;5058599;28;20098;-70
2023/08/01 01:04:08;;;;;;;1999.90;999.90;;;16.80;99.90;;;;;;5076505;28;20044;-71
2023/08/01 01:06:37;;;;;;;1999.90;999.90;;;16.70;99.90;;;;;;5076178;28;20055;-71
2023/08/01 01:09:14;;;;;;;1999.90;999.90;;;16.70;99.90;;;;;;5076073;28;20095;-70
2023/08/01 01:11:40;;;;;;;1999.90;999.90;;;16.70;99.90;;;;;;5059155;28;20414;-70
2023/08/01 01:14:06;;;;;;;1999.90;999.90;;;16.60;99.90;;;;;;5058169;28;20056;-70
2023/08/01 01:16:31;;;;;;;1999.90;999.90;;;16.60;99.90;;;;;;5059092;28;20155;-70
2023/08/01 01:18:57;;;;;;;1999.90;999.90;;;16.60;99.90;;;;;;5058155;28;20045;-71
2023/08/01 01:21:23;;;;;;;1999.90;999.90;;;16.60;99.90;;;;;;5041562;28;20047;-70
2023/08/01 01:23:50;;;;;;;1999.90;999.90;;;16.60;99.90;;;;;;5058577;28;20051;-71
2023/08/01 01:26:20;;;;;;;1999.90;999.90;;;16.50;99.90;;;;;;5076323;28;20044;-71
2023/08/01 01:28:48;;;;;;;1999.90;999.90;;;16.50;99.90;;;;;;5075792;28;20048;-71
2023/08/01 01:31:15;;;;;;;1999.90;999.90;;;16.50;99.90;;;;;;5075661;28;20044;-71
2023/08/01 01:33:41;;;;;;;1999.90;999.90;;;16.50;99.90;;;;;;5058111;28;20040;-71
2023/08/01 01:36:06;;;;;;;1999.90;999.90;;;16.50;99.90;;;;;;5058006;28;20059;-71
2023/08/01 01:38:32;;;;;;;1999.90;999.90;;;16.50;99.90;;;;;;5075928;28;20041;-72
2023/08/01 01:40:58;;;;;;;1999.90;999.90;;;16.40;99.90;;;;;;5058229;28;20044;-71
2023/08/01 01:43:23;;;;;;;1999.90;999.90;;;16.40;99.90;;;;;;5075542;28;20135;-71
2023/08/01 01:45:49;;;;;;;1999.90;999.90;;;16.40;99.90;;;;;;5057582;28;20110;-71
2023/08/01 01:48:15;;;;;;;1999.90;999.90;;;16.40;99.90;;;;;;5075385;28;20051;-72
2023/08/01 01:50:40;;;;;;;1999.90;999.90;;;16.40;99.90;;;;;;5076147;28;20087;-71
2023/08/01 01:53:06;;;;;;;1999.90;999.90;;;16.40;99.90;;;;;;5041838;28;20048;-71
2023/08/01 01:55:32;;;;;;;1999.90;999.90;;;16.30;99.90;;;;;;5075326;28;20044;-71
2023/08/01 01:57:57;;;;;;;1999.90;999.90;;;16.30;99.90;;;;;;5075168;28;20049;-71
2023/08/01 02:00:23;;;;;;;1999.90;999.90;;;16.30;99.90;;;;;;5075962;28;20041;-71
2023/08/01 02:02:49;;;;;;;1999.90;999.90;;;16.30;99.90;;;;;;5075163;28;20049;-71
2023/08/01 02:05:14;;;;;;;1999.90;999.90;;;16.30;99.90;;;;;;5075074;28;20052;-71
2023/08/01 02:07:40;;;;;;;1999.90;999.90;;;16.30;99.90;;;;;;5075576;28;20053;-70
2023/08/01 02:10:06;;;;;;;1999.90;999.90;;;16.20;99.90;;;;;;5075634;28;20128;-73
2023/08/01 02:12:34;;;;;;;1999.90;999.90;;;16.20;99.90;;;;;;5074798;28;20091;-71
2023/08/01 02:15:00;;;;;;;1999.90;999.90;;;16.20;99.90;;;;;;5075003;28;20190;-71
2023/08/01 02:17:26;;;;;;;1999.90;999.90;;;16.20;99.90;;;;;;5074870;28;20094;-71
2023/08/01 02:19:51;;;;;;;1999.90;999.90;;;16.20;99.90;;;;;;5074431;28;20133;-71
2023/08/01 02:22:17;;;;;;;1999.90;999.90;;;16.20;99.90;;;;;;5057349;28;20043;-71
2023/08/01 02:24:43;;;;;;;1999.90;999.90;;;16.10;99.90;;;;;;5075563;28;20052;-71
2023/08/01 02:27:08;;;;;;;1999.90;999.90;;;16.10;99.90;;;;;;5075163;28;20044;-71
2023/08/01 02:29:34;;;;;;;1999.90;999.90;;;16.10;99.90;;;;;;5074814;28;20036;-71
2023/08/01 02:32:00;;;;;;;1999.90;999.90;;;16.10;99.90;;;;;;5075310;28;20037;-71
2023/08/01 02:34:25;;;;;;;1999.90;999.90;;;16.10;99.90;;;;;;5074455;28;20048;-71
2023/08/01 02:36:51;;;;;;;1999.90;999.90;;;16.00;99.90;;;;;;5074930;28;20098;-71
2023/08/01 02:39:17;;;;;;;1999.90;999.90;;;16.00;99.90;;;;;;5040152;28;20046;-71
2023/08/01 02:41:43;;;;;;;1999.90;999.90;;;16.00;99.90;;;;;;5074333;28;20479;-71
2023/08/01 02:44:09;;;;;;;1999.90;999.90;;;16.00;99.90;;;;;;5074298;28;20044;-71
2023/08/01 02:46:34;;;;;;;1999.90;999.90;;;15.90;99.90;;;;;;5074139;28;20040;-71
2023/08/01 02:49:00;;;;;;;1999.90;999.90;;;15.90;99.90;;;;;;5073896;28;20052;-71
2023/08/01 02:51:26;;;;;;;1999.90;999.90;;;15.90;99.90;;;;;;5074342;28;20036;-71
2023/08/01 02:53:51;;;;;;;1999.90;999.90;;;15.80;99.90;;;;;;5074138;28;20495;-71
2023/08/01 02:56:17;;;;;;;1999.90;999.90;;;15.80;99.90;;;;;;5074100;28;20040;-71
2023/08/01 02:58:43;;;;;;;1999.90;999.90;;;15.80;99.90;;;;;;5057193;28;20044;-71
2023/08/01 03:01:10;;;;;;;1999.90;999.90;;;15.80;99.90;;;;;;5074058;28;20123;-71
2023/08/01 03:03:36;;;;;;;1999.90;999.90;;;15.70;99.90;;;;;;5073641;28;20549;-71
2023/08/01 03:06:02;;;;;;;1999.90;999.90;;;15.70;99.90;;;;;;5073918;28;20048;-71
2023/08/01 03:08:28;;;;;;;1999.90;999.90;;;15.70;99.90;;;;;;5074744;28;20115;-71
2023/08/01 03:10:54;;;;;;;1999.90;999.90;;;15.60;99.90;;;;;;5073797;28;20087;-71
2023/08/01 03:13:20;;;;;;;1999.90;999.90;;;15.60;99.90;;;;;;5073730;28;20143;-71
2023/08/01 03:15:46;;;;;;;1999.90;999.90;;;15.60;99.90;;;;;;5056014;28;20044;-71
2023/08/01 03:18:12;;;;;;;1999.90;999.90;;;15.60;99.90;;;;;;5056061;28;20048;-71
2023/08/01 03:20:38;;;;;;;1999.90;999.90;;;15.60;99.90;;;;;;5056413;28;20435;-71
2023/08/01 03:23:03;;;;;;;1999.90;999.90;;;15.60;99.90;;;;;;5073736;28;20074;-71
2023/08/01 03:25:29;;;;;;;1999.90;999.90;;;15.60;99.90;;;;;;5038561;28;20045;-71
2023/08/01 03:27:56;;;;;;;1999.90;999.90;;;15.60;99.90;;;;;;5074459;28;20051;-71
2023/08/01 03:30:22;;;;;;;1999.90;999.90;;;15.60;99.90;;;;;;5074448;28;20434;-71
2023/08/01 03:32:48;;;;;;;1999.90;999.90;;;15.60;99.90;;;;;;5073257;28;20048;-71
2023/08/01 03:35:14;;;;;;;1999.90;999.90;;;15.70;99.90;;;;;;5056269;28;20097;-71
2023/08/01 03:37:40;;;;;;;1999.90;999.90;;;15.70;99.90;;;;;;5056095;28;20044;-71
2023/08/01 03:40:10;;;;;;;1999.90;999.90;;;15.70;99.90;;;;;;5073211;28;20540;-71
2023/08/01 03:42:36;;;;;;;1999.90;999.90;;;15.70;99.90;;;;;;5055612;28;20044;-71
2023/08/01 03:45:03;;;;;;;1999.90;999.90;;;15.70;99.90;;;;;;5073396;28;20404;-71
2023/08/01 03:47:28;;;;;;;1999.90;999.90;;;15.70;99.90;;;;;;5073457;28;20047;-71
2023/08/01 03:49:54;;;;;;;1999.90;999.90;;;15.80;99.90;;;;;;5039101;28;20044;-70
2023/08/01 03:52:20;;;;;;;1999.90;999.90;;;15.80;99.90;;;;;;5055766;28;20072;-70
2023/08/01 03:54:46;;;;;;;1999.90;999.90;;;15.80;99.90;;;;;;5073378;28;20420;-71
2023/08/01 03:57:11;;;;;;;1999.90;999.90;;;15.80;99.90;;;;;;5073358;28;20106;-70
2023/08/01 03:59:37;;;;;;;1999.90;999.90;;;15.80;99.90;;;;;;5056456;28;20040;-71
2023/08/01 04:02:03;;;;;;;1999.90;999.90;;;15.90;99.90;;;;;;5038975;28;20051;-71
2023/08/01 04:04:30;;;;;;;1999.90;999.90;;;15.80;99.90;;;;;;5073344;28;20048;-71
2023/08/01 04:06:57;;;;;;;1999.90;999.90;;;15.90;99.90;;;;;;5056448;28;20372;-71
2023/08/01 04:09:22;;;;;;;1999.90;999.90;;;15.90;99.90;;;;;;5073266;28;20044;-71
2023/08/01 04:11:48;;;;;;;1999.90;999.90;;;15.90;99.90;;;;;;5073426;28;20040;-71
2023/08/01 04:14:14;;;;;;;1999.90;999.90;;;15.90;99.90;;;;;;5072979;28;20100;-71
2023/08/01 04:16:40;;;;;;;1999.90;999.90;;;15.90;99.90;;;;;;5073114;28;20084;-71
2023/08/01 04:19:06;;;;;;;1999.90;999.90;;;15.90;99.90;;;;;;5039026;28;20091;-71
2023/08/01 04:21:31;;;;;;;1999.90;999.90;;;15.90;99.90;;;;;;5056057;28;20048;-71
2023/08/01 04:23:57;;;;;;;1999.90;999.90;;;16.00;99.90;;;;;;5073120;28;20045;-70
2023/08/01 04:26:23;;;;;;;1999.90;999.90;;;16.00;99.90;;;;;;5055157;28;20040;-70
2023/08/01 04:28:48;;;;;;;1999.90;999.90;;;15.90;99.90;;;;;;5073676;28;20182;-71
2023/08/01 04:31:14;;;;;;;1999.90;999.90;;;15.90;99.90;;;;;;5072929;28;20052;-70
2023/08/01 04:33:40;;;;;;;1999.90;999.90;;;15.90;99.90;;;;;;5073579;28;20086;-71
2023/08/01 04:36:06;;;;;;;1999.90;999.90;;;15.90;99.90;;;;;;5056494;28;20472;-70
2023/08/01 04:38:31;;;;;;;1999.90;999.90;;;15.90;99.90;;;;;;5076766;28;20048;-71
2023/08/01 04:40:57;;;;;;;1999.90;999.90;;;15.90;99.90;;;;;;5076740;28;20477;-70
2023/08/01 04:43:23;;;;;;;1999.90;999.90;;;15.80;99.90;;;;;;5059410;28;20059;-71
2023/08/01 04:45:48;;;;;;;1999.90;999.90;;;15.80;99.90;;;;;;5042212;28;20625;-71
2023/08/01 04:48:14;;;;;;;1999.90;999.90;;;15.80;99.90;;;;;;5076771;28;20044;-71
2023/08/01 04:50:40;;;;;;;1999.90;999.90;;;15.80;99.90;;;;;;5076137;28;20475;-70
2023/08/01 04:53:06;;;;;;;1999.90;999.90;;;15.80;99.90;;;;;;5058905;28;20105;-70
2023/08/01 04:55:32;;;;;;;1999.90;999.90;;;15.80;99.90;;;;;;5058827;28;20102;-70
2023/08/01 04:57:58;;;;;;;1999.90;999.90;;;15.80;99.90;;;;;;5076356;28;20496;-71
2023/08/01 05:00:23;;;;;;;1999.90;999.90;;;15.80;99.90;;;;;;5076328;28;20084;-71
2023/08/01 05:02:49;;;;;;;1999.90;999.90;;;15.80;99.90;;;;;;5076017;28;20052;-71
2023/08/01 05:05:16;;;;;;;1999.90;999.90;;;15.80;99.90;;;;;;5076268;28;20047;-71
2023/08/01 05:07:42;;;;;;;1999.90;999.90;;;15.80;99.90;;;;;;5058784;28;20064;-70
2023/08/01 05:10:08;;;;;;;1999.90;999.90;;;15.80;99.90;;;;;;5076738;28;20050;-71
2023/08/01 05:12:33;;;;;;;1999.90;999.90;;;15.80;99.90;;;;;;5058239;28;20127;-71
2023/08/01 05:14:59;;;;;;;1999.90;999.90;;;15.80;99.90;;;;;;5058098;28;20128;-71
2023/08/01 05:17:25;;;;;;;1999.90;999.90;;;15.80;99.90;;;;;;5076069;28;20127;-71
2023/08/01 05:19:51;;;;;;;1999.90;999.90;;;15.90;99.90;;;;;;5075913;28;20048;-71
2023/08/01 05:22:16;;;;;;;1999.90;999.90;;;15.90;99.90;;;;;;5058280;28;20055;-71
2023/08/01 05:24:42;;;;;;;1999.90;999.90;;;15.90;99.90;;;;;;5076452;28;20048;-70
2023/08/01 05:27:08;;;;;;;1999.90;999.90;;;15.90;99.90;;;;;;5075891;28;20091;-71
2023/08/01 05:29:33;;;;;;;1999.90;999.90;;;15.90;99.90;;;;;;5075839;28;20483;-70
2023/08/01 05:31:59;;;;;;;1999.90;999.90;;;15.90;99.90;;;;;;5075355;28;20106;-70
2023/08/01 05:34:25;;;;;;;1999.90;999.90;;;15.90;99.90;;;;;;5058802;28;20056;-70
2023/08/01 05:36:50;;;;;;;1999.90;999.90;;;15.90;99.90;;;;;;5075652;28;20074;-70
2023/08/01 05:39:16;;;;;;;1999.90;999.90;;;15.90;99.90;;;;;;5058618;28;20135;-69
2023/08/01 05:41:43;;;;;;;1999.90;999.90;;;15.90;99.90;;;;;;5075500;28;20044;-70
2023/08/01 05:44:09;;;;;;;1999.90;999.90;;;15.90;99.90;;;;;;5076111;28;20041;-70
2023/08/01 05:46:34;;;;;;;1999.90;999.90;;;15.90;99.90;;;;;;5041116;28;20044;-70
2023/08/01 05:49:00;;;;;;;1999.90;999.90;;;15.90;99.90;;;;;;5074564;28;20072;-70
2023/08/01 05:51:26;;;;;;;1999.90;999.90;;;16.00;99.90;;;;;;5057517;28;20094;-70
2023/08/01 05:53:52;;;;;;;1999.90;999.90;;;16.00;99.90;;;;;;5075520;28;20048;-71
2023/08/01 05:56:17;;;;;;;1999.90;999.90;;;16.10;99.90;;;;;;5075325;28;20505;-70
2023/08/01 05:58:43;;;;;;;1999.90;999.90;;;16.10;99.90;;;;;;5075748;28;20045;-71
2023/08/01 06:01:11;;;;;;;1999.90;999.90;;;16.10;99.90;;;;;;5057516;28;20084;-71
2023/08/01 06:03:37;;;;;;;1999.90;999.90;;;16.10;99.90;;;;;;5041414;28;20063;-71
2023/08/01 06:06:04;;;;;;;1999.90;999.90;;;16.00;99.90;;;;;;5057449;28;20048;-71
2023/08/01 06:08:29;;;;;;;1999.90;999.90;;;16.00;99.90;;;;;;5075013;28;20044;-71
2023/08/01 06:10:55;;;;;;;1999.90;999.90;;;15.90;99.90;;;;;;5075763;28;20123;-72
2023/08/01 06:13:21;;;;;;;1999.90;999.90;;;15.90;99.90;;;;;;5075332;28;20045;-71
2023/08/01 06:15:47;;;;;;;1999.90;999.90;;;15.90;99.90;;;;;;5074889;28;20044;-71
2023/08/01 06:18:12;;;;;;;1999.90;999.90;;;15.90;99.90;;;;;;5057324;28;20395;-71
2023/08/01 06:20:39;;;;;;;1999.90;999.90;;;15.90;99.90;;;;;;5075772;28;20043;-71
2023/08/01 06:23:05;;;;;;;1999.90;999.90;;;15.90;99.90;;;;;;5074924;28;20479;-71
2023/08/01 06:25:31;;;;;;;1999.90;999.90;;;15.90;99.90;;;;;;5057107;28;20039;-71
2023/08/01 06:27:56;;;;;;;1999.90;999.90;;;15.90;99.90;;;;;;5074715;28;20130;-72
2023/08/01 06:30:22;;;;;;;1999.90;999.90;;;15.90;99.90;;;;;;5075260;28;20040;-71
2023/08/01 06:32:48;;;;;;;1999.90;999.90;;;15.90;99.90;;;;;;5074548;28;20032;-71
2023/08/01 06:35:13;;;;;;;1999.90;999.90;;;15.90;99.90;;;;;;5056863;28;20040;-71
2023/08/01 06:37:39;;;;;;;1999.90;999.90;;;16.00;99.90;;;;;;5040519;28;20036;-71
2023/08/01 06:40:06;;;;;;;1999.90;999.90;;;16.00;99.90;;;;;;5075024;28;20135;-71
2023/08/01 06:42:31;;;;;;;1999.90;999.90;;;16.00;99.90;;;;;;5074467;28;20451;-71
2023/08/01 06:44:57;;;;;;;1999.90;999.90;;;16.10;99.90;;;;;;5074605;28;20076;-71
2023/08/01 06:47:23;;;;;;;1999.90;999.90;;;16.00;99.90;;;;;;5075172;28;20511;-71
2023/08/01 06:49:48;;;;;;;1999.90;999.90;;;16.10;99.90;;;;;;5074367;28;20380;-71
2023/08/01 06:52:14;;;;;;;1999.90;999.90;;;16.10;99.90;;;;;;5056368;28;20076;-71
2023/08/01 06:54:40;;;;;;;1999.90;999.90;;;16.10;99.90;;;;;;5074166;28;20046;-71
2023/08/01 06:57:07;;;;;;;1999.90;999.90;;;16.10;99.90;;;;;;5074151;28;20490;-72
2023/08/01 06:59:33;;;;;;;1999.90;999.90;;;16.10;99.90;;;;;;5073987;28;20044;-72
2023/08/01 07:01:58;;;;;;;1999.90;999.90;;;16.00;99.90;;;;;;5056424;28;20060;-72
2023/08/01 07:04:24;;;;;;;1999.90;999.90;;;16.10;99.90;;;;;;5040570;28;20094;-70
2023/08/01 07:06:50;;;;;;;1999.90;999.90;;;16.00;99.90;;;;;;5073954;28;20040;-72
2023/08/01 07:09:16;;;;;;;1999.90;999.90;;;16.00;99.90;;;;;;5073815;28;20049;-72
2023/08/01 07:11:41;;;;;;;1999.90;999.90;;;16.00;99.90;;;;;;5073770;28;20045;-72
2023/08/01 07:14:07;;;;;;;1999.90;999.90;;;16.00;99.90;;;;;;5055815;28;20487;-72
2023/08/01 07:16:33;;;;;;;1999.90;999.90;;;16.00;99.90;;;;;;5055891;28;20391;-72
2023/08/01 07:19:00;;;;;;;1999.90;999.90;;;15.90;99.90;;;;;;5055824;28;20068;-72
2023/08/01 07:21:26;;;;;;;1999.90;999.90;;;15.90;99.90;;;;;;5073776;28;20048;-72
2023/08/01 07:23:52;;;;;;;1999.90;999.90;;;16.00;99.90;;;;;;5055942;28;20097;-72
2023/08/01 07:26:18;;;;;;;1999.90;999.90;;;16.00;99.90;;;;;;5074093;28;20044;-72
2023/08/01 07:28:43;;;;;;;1999.90;999.90;;;16.10;99.90;;;;;;5056400;28;20597;-71
2023/08/01 07:31:09;;;;;;;1999.90;999.90;;;16.10;99.90;;;;;;5073731;28;20048;-73
2023/08/01 07:33:35;;;;;;;1999.90;999.90;;;16.10;99.90;;;;;;5075268;28;20052;-73
2023/08/01 07:36:01;;;;;;;1999.90;999.90;;;16.20;99.90;;;;;;5073295;28;20066;-73
2023/08/01 07:38:27;;;;;;;1999.90;999.90;;;16.10;99.90;;;;;;5073174;28;20050;-73
2023/08/01 07:40:53;;;;;;;1999.90;999.90;;;16.20;99.90;;;;;;5055548;28;20131;-72
2023/08/01 07:43:19;;;;;;;1999.90;999.90;;;16.20;99.90;;;;;;5073209;28;20052;-73
2023/08/01 07:45:45;;;;;;;1999.90;999.90;;;16.30;99.90;;;;;;5055265;28;20052;-72
2023/08/01 07:48:11;;;;;;;1999.90;999.90;;;16.30;99.90;;;;;;5055496;28;20058;-72
2023/08/01 07:50:36;;;;;;;1999.90;999.90;;;16.30;99.90;;;;;;5072979;28;20123;-72
2023/08/01 07:53:02;;;;;;;1999.90;999.90;;;16.20;99.90;;;;;;5073324;28;20041;-73
2023/08/01 07:55:28;;;;;;;1999.90;999.90;;;16.20;99.90;;;;;;5072830;28;20048;-73
2023/08/01 07:57:54;;;;;;;1999.90;999.90;;;16.30;99.90;;;;;;5073011;28;20052;-73
2023/08/01 08:00:19;;;;;;;1999.90;999.90;;;16.30;99.90;;;;;;5073104;28;20254;-72
2023/08/01 08:02:46;;;;;;;1999.90;999.90;;;16.30;99.90;;;;;;5072955;28;20462;-72
2023/08/01 08:05:12;;;;;;;1999.90;999.90;;;16.30;99.90;;;;;;5072951;28;20408;-71
2023/08/01 08:07:38;;;;;;;1999.90;999.90;;;16.40;99.90;;;;;;5072706;28;20510;-73
2023/08/01 08:10:05;;;;;;;1999.90;999.90;;;16.40;99.90;;;;;;5072964;28;20118;-72
2023/08/01 08:12:31;;;;;;;1999.90;999.90;;;16.40;99.90;;;;;;5057587;28;20047;-72
2023/08/01 08:14:57;;;;;;;1999.90;999.90;;;16.50;99.90;;;;;;5077353;28;20057;-73
2023/08/01 08:17:22;;;;;;;1999.90;999.90;;;16.40;99.90;;;;;;5076751;28;20052;-72
2023/08/01 08:19:48;;;;;;;1999.90;999.90;;;16.40;99.90;;;;;;5076739;28;20052;-73
2023/08/01 08:22:14;;;;;;;1999.90;999.90;;;16.40;99.90;;;;;;5076689;28;20052;-72
2023/08/01 08:24:39;;;;;;;1999.90;999.90;;;16.40;99.90;;;;;;5076425;28;20048;-73
2023/08/01 08:27:05;;;;;;;1999.90;999.90;;;16.40;99.90;;;;;;5077399;28;20078;-73
2023/08/01 08:29:32;;;;;;;1999.90;999.90;;;16.30;99.90;;;;;;5076513;28;20139;-69
2023/08/01 08:31:58;;;;;;;1999.90;999.90;;;16.30;99.90;;;;;;5058835;28;20041;-74
2023/08/01 08:34:24;;;;;;;1999.90;999.90;;;16.30;99.90;;;;;;5041899;28;20550;-75
2023/08/01 08:36:50;;;;;;;1999.90;999.90;;;16.20;99.90;;;;;;5076457;28;20044;-74
2023/08/01 08:39:16;;;;;;;1999.90;999.90;;;16.20;99.90;;;;;;5076641;28;20052;-73
2023/08/01 08:41:48;;;;;;;1999.90;999.90;;;16.20;99.90;;;;;;5058625;28;20488;-73
2023/08/01 08:44:20;;;;;;;1999.90;999.90;;;16.20;99.90;;;;;;5058643;28;20051;-72
2023/08/01 08:46:53;;;;;;;1999.90;999.90;;;16.20;99.90;;;;;;5058215;28;20492;-74
2023/08/01 08:49:21;;;;;;;1999.90;999.90;;;16.20;99.90;;;;;;5042004;28;20040;-71
2023/08/01 08:51:48;;;;;;;1999.90;999.90;;;16.30;99.90;;;;;;5076582;28;20048;-74
2023/08/01 08:54:15;;;;;;;1999.90;999.90;;;16.30;99.90;;;;;;5076148;28;20052;-74
2023/08/01 08:56:41;;;;;;;1999.90;999.90;;;16.40;99.90;;;;;;5058124;28;20596;-71
2023/08/01 08:59:10;;;;;;;1999.90;999.90;;;16.40;99.90;;;;;;5076077;28;20168;-70
2023/08/01 09:01:37;;;;;;;1999.90;999.90;;;16.50;99.90;;;;;;5076470;28;20435;-72
2023/08/01 09:04:03;;;;;;;1999.90;999.90;;;16.50;99.90;;;;;;5076091;28;20080;-72
2023/08/01 09:06:32;;;;;;;1999.90;999.90;;;16.50;99.90;;;;;;5077237;28;20044;-71
2023/08/01 09:09:14;;;;;;;1999.90;999.90;;;16.50;99.90;;;;;;5042142;28;20041;-71
2023/08/01 09:11:44;;;;;;;1999.90;999.90;;;16.50;99.90;;;;;;5076599;28;20464;-73
2023/08/01 09:14:10;;;;;;;1999.90;999.90;;;16.60;99.90;;;;;;5076681;28;20369;-72
2023/08/01 09:16:36;;;;;;;1999.90;999.90;;;16.60;99.90;;;;;;5059051;28;20431;-74
2023/08/01 09:19:02;;;;;;;1999.90;999.90;;;16.60;99.90;;;;;;5076955;28;20428;-71
2023/08/01 09:21:34;;;;;;;1999.90;999.90;;;16.60;99.90;;;;;;5076105;28;20082;-71
2023/08/01 09:24:17;;;;;;;1999.90;999.90;;;16.50;99.90;;;;;;5057404;28;20056;-72
2023/08/01 09:26:44;;;;;;;;;;;16.50;99.90;;;;;;5076468;28;20045;-78
2023/08/01 09:29:10;;;;;;;1999.90;999.90;;;16.50;99.90;;;;;;5075962;28;19921;-74
2023/08/01 09:31:38;;;;;;;1999.90;999.90;;;16.40;99.90;;;;;;5058373;28;20041;-73
2023/08/01 09:34:06;;;;;;;1999.90;999.90;;;16.40;99.90;;;;;;5058573;28;20127;-72
2023/08/01 09:36:33;;;;;;;1999.90;999.90;;;16.40;99.90;;;;;;5075806;28;20091;-74
2023/08/01 09:39:04;;;;;;;1999.90;999.90;;;16.40;99.90;;;;;;5058262;28;20053;-74
2023/08/01 09:41:31;;;;;;;1999.90;999.90;;;16.40;99.90;;;;;;5075965;28;20384;-72
2023/08/01 09:43:57;;;;;;;1999.90;999.90;;;16.50;99.90;;;;;;5075599;28;20058;-74
2023/08/01 09:46:23;;;;;;;1999.90;999.90;;;16.50;99.90;;;;;;5057958;28;20045;-73
2023/08/01 09:48:49;;;;;;;1999.90;999.90;;;16.60;99.90;;;;;;5057324;28;20071;-73
2023/08/01 09:51:17;;;;;;;1999.90;999.90;;;16.70;99.90;;;;;;5057637;28;20040;-71
2023/08/01 09:53:53;;;;;;;1999.90;999.90;;;16.70;99.90;;;;;;5075828;28;20054;-76
2023/08/01 09:56:24;;;;;;;1999.90;999.90;;;16.70;99.90;;;;;;5075825;28;20056;-73
2023/08/01 09:58:52;;;;;;;1999.90;999.90;;;16.70;99.90;;;;;;5075323;28;20044;-73
2023/08/01 10:01:21;;;;;;;1999.90;999.90;;;16.80;99.90;;;;;;5075170;28;20041;-74
2023/08/01 10:03:52;;;;;;;1999.90;999.90;;;16.80;99.90;;;;;;5057469;28;20040;-73
2023/08/01 10:06:31;;;;;;;1999.90;999.90;;;16.80;99.90;;;;;;5075117;28;20053;-73
2023/08/01 10:08:58;;;;;;;1999.90;999.90;;;16.80;99.90;;;;;;5075963;28;20063;-74
2023/08/01 10:11:23;;;;;;;1999.90;999.90;;;16.80;99.90;;;;;;5074888;28;20040;-74
2023/08/01 10:13:50;;;;;;;1999.90;999.90;;;16.70;99.90;;;;;;5056767;28;20392;-74
2023/08/01 10:16:16;;;;;;;1999.90;999.90;;;16.70;99.90;;;;;;5057174;28;20524;-74
2023/08/01 10:18:43;;;;;;;1999.90;999.90;;;16.70;99.90;;;;;;5074831;28;20131;-75
2023/08/01 10:21:20;;;;;;;1999.90;999.90;;;16.60;99.90;;;;;;5074836;28;20041;-75
2023/08/01 10:23:47;;;;;;;1999.90;999.90;;;16.60;99.90;;;;;;5074494;28;20464;-71
2023/08/01 10:26:13;;;;;;;1999.90;999.90;;;16.50;99.90;;;;;;5075061;28;20053;-73
2023/08/01 10:28:41;;;;;;;1999.90;999.90;;;16.50;99.90;;;;;;5056958;28;20036;-73
2023/08/01 10:31:17;;;;;;;1999.90;999.90;;;16.60;99.90;;;;;;5074692;28;20094;-71
2023/08/01 10:33:45;;;;;;;1999.90;999.90;;;16.60;99.90;;;;;;5074549;28;20048;-73
2023/08/01 10:36:27;;;;;;;1999.90;999.90;;;16.70;99.90;;;;;;5056566;28;20049;-74
2023/08/01 10:38:57;;;;;;;1999.90;999.90;;;16.90;99.90;;;;;;5056953;28;20083;-72
2023/08/01 10:41:30;;;;;;;1999.90;999.90;;;17.00;99.90;;;;;;5074645;28;20472;-72
2023/08/01 10:44:14;;;;;;;1999.90;999.90;;;17.10;99.90;;;;;;5074445;28;20048;-72
2023/08/01 10:46:54;;;;;;;1999.90;999.90;;;17.20;99.90;;;;;;5074659;28;20442;-71
2023/08/01 10:49:36;;;;;;;1999.90;999.90;;;17.30;99.90;;;;;;5074388;28;20036;-74
2023/08/01 10:52:04;;;;;;;1999.90;999.90;;;17.30;99.90;;;;;;5074136;28;20048;-72
2023/08/01 10:54:31;;;;;;;1999.90;999.90;;;17.30;99.90;;;;;;5074391;28;20047;-72
2023/08/01 10:57:01;;;;;;;1999.90;999.90;;;17.20;99.90;;;;;;5056804;28;20110;-72
2023/08/01 10:59:27;;;;;;;1999.90;999.90;;;17.10;99.90;;;;;;5074321;28;20499;-72
2023/08/01 11:01:58;;;;;;;1999.90;999.90;;;17.10;99.90;;;;;;5055905;28;20044;-73
2023/08/01 11:04:25;;;;;;;1999.90;999.90;;;17.00;99.90;;;;;;5074054;28;20552;-73
2023/08/01 11:06:52;;;;;;;1999.90;999.90;;;17.00;99.90;;;;;;5074027;28;20049;-74
2023/08/01 11:09:21;;;;;;;1999.90;999.90;;;16.90;99.90;;;;;;5056686;28;20376;-73
2023/08/01 11:11:55;;;;;;;1999.90;999.90;;;16.90;99.90;;;;;;5073638;28;20048;-73
2023/08/01 11:14:28;;;;;;;1999.90;999.90;;;16.80;99.90;;;;;;5073573;28;20078;-72
2023/08/01 11:16:56;;;;;;;1999.90;999.90;;;16.80;99.90;;;;;;5074566;28;20045;-72
2023/08/01 11:19:29;;;;;;;1999.90;999.90;;;16.80;99.90;;;;;;5056193;28;20121;-73
2023/08/01 11:21:56;;;;;;;1999.90;999.90;;;16.90;99.90;;;;;;5074348;28;20127;-73
2023/08/01 11:24:23;;;;;;;1999.90;999.90;;;17.00;99.90;;;;;;5073780;28;20084;-72
2023/08/01 11:26:50;;;;;;;1999.90;999.90;;;17.10;99.90;;;;;;5055679;28;20078;-72
2023/08/01 11:29:18;;;;;;;1999.90;999.90;;;17.30;99.90;;;;;;5073629;28;20053;-73
2023/08/01 11:31:57;;;;;;;1999.90;999.90;;;17.30;99.90;;;;;;5073504;28;20045;-71
2023/08/01 11:34:23;;;;;;;1999.90;999.90;;;17.40;99.90;;;;;;5073550;28;20048;-74
2023/08/01 11:36:50;;;;;;;1999.90;999.90;;;17.40;99.90;;;;;;5056001;28;20040;-74
2023/08/01 11:39:16;;;;;;;1999.90;999.90;;;17.40;99.90;;;;;;5055784;28;20143;-73
2023/08/01 11:41:43;;;;;;;1999.90;999.90;;;17.40;99.90;;;;;;5055696;28;20130;-73
2023/08/01 11:44:10;;;;;;;1999.90;999.90;;;17.40;99.90;;;;;;5073141;28;20048;-73
2023/08/01 11:46:37;;;;;;;1999.90;999.90;;;17.30;99.90;;;;;;5054771;28;20044;-72
2023/08/01 11:49:03;;;;;;;1999.90;999.90;;;17.30;99.90;;;;;;5073507;28;20048;-74
2023/08/01 11:51:29;;;;;;;1999.90;999.90;;;17.40;99.90;;;;;;5073374;28;20041;-73
2023/08/01 11:54:03;;;;;;;1999.90;999.90;;;17.50;99.90;;;;;;5073503;28;20048;-73
2023/08/01 11:56:30;;;;;;;1999.90;999.90;;;17.60;99.90;;;;;;5023264;28;20051;-72